sensor_id;sensor_type;location;lat;lon;timestamp;temperature;humidity
58153;DHT22;43967;51.634;5.566;2023-04-19T00:03:16;18.50;62.90
58153;DHT22;43967;51.634;5.566;2023-04-19T00:08:37;18.50;62.80
58153;DHT22;43967;51.634;5.566;2023-04-19T00:13:58;18.40;62.80
58153;DHT22;43967;51.634;5.566;2023-04-19T00:19:20;18.40;62.80
58153;DHT22;43967;51.634;5.566;2023-04-19T00:24:41;18.40;62.90
58153;DHT22;43967;51.634;5.566;2023-04-19T00:30:02;18.40;62.90
58153;DHT22;43967;51.634;5.566;2023-04-19T00:35:24;18.40;62.80
58153;DHT22;43967;51.634;5.566;2023-04-19T00:40:45;18.40;62.80
58153;DHT22;43967;51.634;5.566;2023-04-19T00:46:06;18.40;62.80
58153;DHT22;43967;51.634;5.566;2023-04-19T00:51:28;18.40;62.80
58153;DHT22;43967;51.634;5.566;2023-04-19T00:56:50;18.40;63.50
58153;DHT22;43967;51.634;5.566;2023-04-19T01:02:11;18.40;62.90
58153;DHT22;43967;51.634;5.566;2023-04-19T01:07:33;18.30;62.70
58153;DHT22;43967;51.634;5.566;2023-04-19T01:12:54;18.30;62.80
58153;DHT22;43967;51.634;5.566;2023-04-19T01:18:15;18.30;62.70
58153;DHT22;43967;51.634;5.566;2023-04-19T01:23:37;18.30;62.80
58153;DHT22;43967;51.634;5.566;2023-04-19T01:28:58;18.30;62.70
58153;DHT22;43967;51.634;5.566;2023-04-19T01:34:19;18.30;62.60
58153;DHT22;43967;51.634;5.566;2023-04-19T01:39:41;18.30;62.70
58153;DHT22;43967;51.634;5.566;2023-04-19T01:45:02;18.30;62.60
58153;DHT22;43967;51.634;5.566;2023-04-19T01:50:23;18.30;62.60
58153;DHT22;43967;51.634;5.566;2023-04-19T01:55:45;18.30;62.60
58153;DHT22;43967;51.634;5.566;2023-04-19T02:01:06;18.30;62.60
58153;DHT22;43967;51.634;5.566;2023-04-19T02:06:27;18.30;62.70
58153;DHT22;43967;51.634;5.566;2023-04-19T02:11:48;18.30;62.60
58153;DHT22;43967;51.634;5.566;2023-04-19T02:17:10;18.30;62.70
58153;DHT22;43967;51.634;5.566;2023-04-19T02:22:31;18.30;62.60
58153;DHT22;43967;51.634;5.566;2023-04-19T02:27:52;18.20;62.60
58153;DHT22;43967;51.634;5.566;2023-04-19T02:33:14;18.30;62.60
58153;DHT22;43967;51.634;5.566;2023-04-19T02:38:35;18.20;62.50
58153;DHT22;43967;51.634;5.566;2023-04-19T02:43:57;18.20;62.60
58153;DHT22;43967;51.634;5.566;2023-04-19T02:49:18;18.20;62.50
58153;DHT22;43967;51.634;5.566;2023-04-19T02:54:40;18.20;62.60
58153;DHT22;43967;51.634;5.566;2023-04-19T03:00:01;18.20;62.60
58153;DHT22;43967;51.634;5.566;2023-04-19T03:05:22;18.20;62.60
58153;DHT22;43967;51.634;5.566;2023-04-19T03:10:44;18.20;62.60
58153;DHT22;43967;51.634;5.566;2023-04-19T03:16:06;18.20;62.70
58153;DHT22;43967;51.634;5.566;2023-04-19T03:21:28;18.20;62.70
58153;DHT22;43967;51.634;5.566;2023-04-19T03:26:49;18.20;62.70
58153;DHT22;43967;51.634;5.566;2023-04-19T03:32:10;18.20;62.70
58153;DHT22;43967;51.634;5.566;2023-04-19T03:37:31;18.20;62.80
58153;DHT22;43967;51.634;5.566;2023-04-19T03:42:53;18.20;62.80
58153;DHT22;43967;51.634;5.566;2023-04-19T03:48:14;18.20;62.90
58153;DHT22;43967;51.634;5.566;2023-04-19T03:53:35;18.20;63.00
58153;DHT22;43967;51.634;5.566;2023-04-19T03:58:57;18.20;63.00
58153;DHT22;43967;51.634;5.566;2023-04-19T04:04:18;18.20;63.20
58153;DHT22;43967;51.634;5.566;2023-04-19T04:09:39;18.20;63.40
58153;DHT22;43967;51.634;5.566;2023-04-19T04:15:01;18.10;63.50
58153;DHT22;43967;51.634;5.566;2023-04-19T04:20:22;18.20;63.70
58153;DHT22;43967;51.634;5.566;2023-04-19T04:25:43;18.10;64.30
58153;DHT22;43967;51.634;5.566;2023-04-19T04:31:05;18.20;63.60
58153;DHT22;43967;51.634;5.566;2023-04-19T04:36:26;18.10;63.80
58153;DHT22;43967;51.634;5.566;2023-04-19T04:41:47;18.10;63.80
58153;DHT22;43967;51.634;5.566;2023-04-19T04:47:09;18.10;63.80
58153;DHT22;43967;51.634;5.566;2023-04-19T04:52:30;18.10;63.70
58153;DHT22;43967;51.634;5.566;2023-04-19T04:57:51;18.20;63.40
58153;DHT22;43967;51.634;5.566;2023-04-19T05:03:12;18.10;63.20
58153;DHT22;43967;51.634;5.566;2023-04-19T05:08:34;18.20;63.30
58153;DHT22;43967;51.634;5.566;2023-04-19T05:13:55;18.10;63.20
58153;DHT22;43967;51.634;5.566;2023-04-19T05:19:16;18.10;63.20
58153;DHT22;43967;51.634;5.566;2023-04-19T05:24:37;18.00;63.40
58153;DHT22;43967;51.634;5.566;2023-04-19T05:29:59;18.00;63.50
58153;DHT22;43967;51.634;5.566;2023-04-19T05:35:20;18.00;63.60
58153;DHT22;43967;51.634;5.566;2023-04-19T05:40:41;18.00;63.60
58153;DHT22;43967;51.634;5.566;2023-04-19T05:46:02;17.90;63.50
58153;DHT22;43967;51.634;5.566;2023-04-19T05:51:24;17.90;63.50
58153;DHT22;43967;51.634;5.566;2023-04-19T05:56:45;18.00;63.50
58153;DHT22;43967;51.634;5.566;2023-04-19T06:02:06;17.90;63.50
58153;DHT22;43967;51.634;5.566;2023-04-19T06:07:28;18.00;63.40
58153;DHT22;43967;51.634;5.566;2023-04-19T06:12:49;17.90;63.50
58153;DHT22;43967;51.634;5.566;2023-04-19T06:18:10;18.00;63.40
58153;DHT22;43967;51.634;5.566;2023-04-19T06:23:31;17.90;63.40
58153;DHT22;43967;51.634;5.566;2023-04-19T06:28:53;18.00;63.30
58153;DHT22;43967;51.634;5.566;2023-04-19T06:34:14;18.00;63.20
58153;DHT22;43967;51.634;5.566;2023-04-19T06:39:35;18.10;63.30
58153;DHT22;43967;51.634;5.566;2023-04-19T06:44:56;18.20;63.20
58153;DHT22;43967;51.634;5.566;2023-04-19T06:50:18;18.30;62.80
58153;DHT22;43967;51.634;5.566;2023-04-19T06:55:39;18.50;62.40
58153;DHT22;43967;51.634;5.566;2023-04-19T07:01:01;18.70;62.10
58153;DHT22;43967;51.634;5.566;2023-04-19T07:06:22;18.90;61.50
58153;DHT22;43967;51.634;5.566;2023-04-19T07:11:44;19.10;61.10
58153;DHT22;43967;51.634;5.566;2023-04-19T07:17:05;19.20;60.50
58153;DHT22;43967;51.634;5.566;2023-04-19T07:22:26;19.40;60.00
58153;DHT22;43967;51.634;5.566;2023-04-19T07:27:47;19.60;59.50
58153;DHT22;43967;51.634;5.566;2023-04-19T07:33:09;19.80;59.20
58153;DHT22;43967;51.634;5.566;2023-04-19T07:38:30;19.90;59.40
58153;DHT22;43967;51.634;5.566;2023-04-19T07:43:51;19.90;60.00
58153;DHT22;43967;51.634;5.566;2023-04-19T07:49:13;19.70;60.60
58153;DHT22;43967;51.634;5.566;2023-04-19T07:54:34;19.60;61.30
58153;DHT22;43967;51.634;5.566;2023-04-19T07:59:55;19.50;61.80
58153;DHT22;43967;51.634;5.566;2023-04-19T08:05:16;19.40;62.20
58153;DHT22;43967;51.634;5.566;2023-04-19T08:10:38;19.40;62.50
58153;DHT22;43967;51.634;5.566;2023-04-19T08:15:59;19.40;62.70
58153;DHT22;43967;51.634;5.566;2023-04-19T08:21:20;19.40;63.10
58153;DHT22;43967;51.634;5.566;2023-04-19T08:26:42;19.40;63.30
58153;DHT22;43967;51.634;5.566;2023-04-19T08:32:04;19.40;63.50
58153;DHT22;43967;51.634;5.566;2023-04-19T08:37:26;19.30;63.60
58153;DHT22;43967;51.634;5.566;2023-04-19T08:42:47;19.30;63.70
58153;DHT22;43967;51.634;5.566;2023-04-19T08:48:09;19.30;63.90
58153;DHT22;43967;51.634;5.566;2023-04-19T08:53:32;19.30;63.90
58153;DHT22;43967;51.634;5.566;2023-04-19T08:58:54;19.30;64.10
58153;DHT22;43967;51.634;5.566;2023-04-19T09:04:15;19.20;64.00
58153;DHT22;43967;51.634;5.566;2023-04-19T09:09:36;19.20;64.10
58153;DHT22;43967;51.634;5.566;2023-04-19T09:14:57;19.20;64.10
58153;DHT22;43967;51.634;5.566;2023-04-19T09:20:41;19.20;64.20
58153;DHT22;43967;51.634;5.566;2023-04-19T09:26:02;19.20;65.00
58153;DHT22;43967;51.634;5.566;2023-04-19T09:31:25;19.20;64.30
58153;DHT22;43967;51.634;5.566;2023-04-19T09:36:48;19.20;64.30
58153;DHT22;43967;51.634;5.566;2023-04-19T09:42:09;19.20;64.30
58153;DHT22;43967;51.634;5.566;2023-04-19T09:47:31;19.20;64.40
58153;DHT22;43967;51.634;5.566;2023-04-19T09:52:52;19.20;64.50
58153;DHT22;43967;51.634;5.566;2023-04-19T09:58:15;19.10;64.30
58153;DHT22;43967;51.634;5.566;2023-04-19T10:03:37;19.10;64.10
58153;DHT22;43967;51.634;5.566;2023-04-19T10:09:00;19.10;63.80
58153;DHT22;43967;51.634;5.566;2023-04-19T10:14:23;19.10;63.70
58153;DHT22;43967;51.634;5.566;2023-04-19T10:19:47;19.10;63.50
58153;DHT22;43967;51.634;5.566;2023-04-19T10:25:14;19.10;63.40
58153;DHT22;43967;51.634;5.566;2023-04-19T10:30:58;19.10;63.50
58153;DHT22;43967;51.634;5.566;2023-04-19T10:36:20;19.10;63.60
58153;DHT22;43967;51.634;5.566;2023-04-19T10:41:56;19.10;63.50
58153;DHT22;43967;51.634;5.566;2023-04-19T10:47:40;19.10;63.40
58153;DHT22;43967;51.634;5.566;2023-04-19T11:10:10;19.10;62.80
58153;DHT22;43967;51.634;5.566;2023-04-19T11:15:32;19.10;62.50
58153;DHT22;43967;51.634;5.566;2023-04-19T11:20:53;19.10;62.60
58153;DHT22;43967;51.634;5.566;2023-04-19T11:26:14;19.10;62.60
58153;DHT22;43967;51.634;5.566;2023-04-19T11:31:36;19.10;62.50
58153;DHT22;43967;51.634;5.566;2023-04-19T11:36:57;19.10;62.40
58153;DHT22;43967;51.634;5.566;2023-04-19T11:42:19;19.10;62.40
58153;DHT22;43967;51.634;5.566;2023-04-19T11:47:47;19.10;62.30
58153;DHT22;43967;51.634;5.566;2023-04-19T11:53:20;19.10;62.30
58153;DHT22;43967;51.634;5.566;2023-04-19T11:58:45;19.10;62.20
58153;DHT22;43967;51.634;5.566;2023-04-19T12:04:08;19.10;62.10
58153;DHT22;43967;51.634;5.566;2023-04-19T12:09:32;19.10;62.20
58153;DHT22;43967;51.634;5.566;2023-04-19T12:14:54;19.10;62.00
58153;DHT22;43967;51.634;5.566;2023-04-19T12:20:37;19.10;61.90
58153;DHT22;43967;51.634;5.566;2023-04-19T12:26:03;19.10;62.00
58153;DHT22;43967;51.634;5.566;2023-04-19T12:31:25;19.10;61.90
58153;DHT22;43967;51.634;5.566;2023-04-19T12:36:46;19.00;61.70
58153;DHT22;43967;51.634;5.566;2023-04-19T12:42:07;19.00;61.60
58153;DHT22;43967;51.634;5.566;2023-04-19T12:47:29;19.00;61.40
58153;DHT22;43967;51.634;5.566;2023-04-19T12:52:50;19.00;61.10
58153;DHT22;43967;51.634;5.566;2023-04-19T12:58:12;19.00;60.90
58153;DHT22;43967;51.634;5.566;2023-04-19T13:03:33;19.00;60.60
58153;DHT22;43967;51.634;5.566;2023-04-19T13:08:54;19.00;60.20
58153;DHT22;43967;51.634;5.566;2023-04-19T13:14:16;19.00;60.10
58153;DHT22;43967;51.634;5.566;2023-04-19T13:19:37;19.00;60.00
58153;DHT22;43967;51.634;5.566;2023-04-19T13:24:58;19.00;59.60
58153;DHT22;43967;51.634;5.566;2023-04-19T13:30:19;19.00;59.40
58153;DHT22;43967;51.634;5.566;2023-04-19T13:35:41;19.00;59.20
58153;DHT22;43967;51.634;5.566;2023-04-19T13:41:03;19.00;59.10
58153;DHT22;43967;51.634;5.566;2023-04-19T13:46:24;19.00;59.10
58153;DHT22;43967;51.634;5.566;2023-04-19T13:51:45;19.00;58.60
58153;DHT22;43967;51.634;5.566;2023-04-19T13:57:07;19.00;58.20
58153;DHT22;43967;51.634;5.566;2023-04-19T14:02:28;19.00;57.80
58153;DHT22;43967;51.634;5.566;2023-04-19T14:07:49;19.10;57.60
58153;DHT22;43967;51.634;5.566;2023-04-19T14:13:10;19.10;57.50
58153;DHT22;43967;51.634;5.566;2023-04-19T14:18:32;19.10;57.60
58153;DHT22;43967;51.634;5.566;2023-04-19T14:23:54;19.00;57.30
58153;DHT22;43967;51.634;5.566;2023-04-19T14:29:15;19.00;57.40
58153;DHT22;43967;51.634;5.566;2023-04-19T14:34:37;19.00;57.30
58153;DHT22;43967;51.634;5.566;2023-04-19T14:39:58;19.00;57.20
58153;DHT22;43967;51.634;5.566;2023-04-19T14:45:19;19.00;57.20
58153;DHT22;43967;51.634;5.566;2023-04-19T14:50:40;19.00;57.10
58153;DHT22;43967;51.634;5.566;2023-04-19T14:56:03;19.00;57.00
58153;DHT22;43967;51.634;5.566;2023-04-19T15:01:25;19.00;56.90
58153;DHT22;43967;51.634;5.566;2023-04-19T15:06:46;19.00;56.90
58153;DHT22;43967;51.634;5.566;2023-04-19T15:12:08;19.10;56.80
58153;DHT22;43967;51.634;5.566;2023-04-19T15:17:29;19.00;56.60
58153;DHT22;43967;51.634;5.566;2023-04-19T15:22:51;19.00;56.40
58153;DHT22;43967;51.634;5.566;2023-04-19T15:28:12;19.00;56.30
58153;DHT22;43967;51.634;5.566;2023-04-19T15:33:35;19.10;55.40
58153;DHT22;43967;51.634;5.566;2023-04-19T15:38:59;19.10;56.00
58153;DHT22;43967;51.634;5.566;2023-04-19T15:44:21;19.10;56.30
58153;DHT22;43967;51.634;5.566;2023-04-19T15:49:42;19.10;56.30
58153;DHT22;43967;51.634;5.566;2023-04-19T15:55:03;19.10;56.50
58153;DHT22;43967;51.634;5.566;2023-04-19T16:00:25;19.10;56.30
58153;DHT22;43967;51.634;5.566;2023-04-19T16:05:46;19.10;56.30
58153;DHT22;43967;51.634;5.566;2023-04-19T16:11:08;19.10;56.40
58153;DHT22;43967;51.634;5.566;2023-04-19T16:16:29;19.10;56.30
58153;DHT22;43967;51.634;5.566;2023-04-19T16:21:50;19.10;56.00
58153;DHT22;43967;51.634;5.566;2023-04-19T16:27:12;19.10;55.80
58153;DHT22;43967;51.634;5.566;2023-04-19T16:32:33;19.10;55.60
58153;DHT22;43967;51.634;5.566;2023-04-19T16:37:54;19.10;55.60
58153;DHT22;43967;51.634;5.566;2023-04-19T16:43:15;19.10;55.70
58153;DHT22;43967;51.634;5.566;2023-04-19T16:48:37;19.10;55.70
58153;DHT22;43967;51.634;5.566;2023-04-19T16:53:58;19.00;55.70
58153;DHT22;43967;51.634;5.566;2023-04-19T16:59:19;19.10;55.70
58153;DHT22;43967;51.634;5.566;2023-04-19T17:04:41;19.10;55.90
58153;DHT22;43967;51.634;5.566;2023-04-19T17:10:02;19.10;55.90
58153;DHT22;43967;51.634;5.566;2023-04-19T17:15:23;19.00;55.80
58153;DHT22;43967;51.634;5.566;2023-04-19T17:20:45;19.10;56.00
58153;DHT22;43967;51.634;5.566;2023-04-19T17:26:06;19.00;55.90
58153;DHT22;43967;51.634;5.566;2023-04-19T17:31:27;19.00;56.00
58153;DHT22;43967;51.634;5.566;2023-04-19T17:36:49;19.00;56.10
58153;DHT22;43967;51.634;5.566;2023-04-19T17:42:10;19.00;56.10
58153;DHT22;43967;51.634;5.566;2023-04-19T17:47:31;19.00;56.20
58153;DHT22;43967;51.634;5.566;2023-04-19T17:52:52;19.00;56.00
58153;DHT22;43967;51.634;5.566;2023-04-19T17:58:14;19.00;56.00
58153;DHT22;43967;51.634;5.566;2023-04-19T18:03:35;19.00;56.10
58153;DHT22;43967;51.634;5.566;2023-04-19T18:08:56;19.00;57.10
58153;DHT22;43967;51.634;5.566;2023-04-19T18:14:17;19.00;60.90
58153;DHT22;43967;51.634;5.566;2023-04-19T18:19:39;19.00;60.60
58153;DHT22;43967;51.634;5.566;2023-04-19T18:25:00;19.00;60.20
58153;DHT22;43967;51.634;5.566;2023-04-19T18:30:21;19.00;59.90
58153;DHT22;43967;51.634;5.566;2023-04-19T18:35:43;19.00;59.80
58153;DHT22;43967;51.634;5.566;2023-04-19T18:41:04;19.00;59.80
58153;DHT22;43967;51.634;5.566;2023-04-19T18:46:25;19.00;59.80
58153;DHT22;43967;51.634;5.566;2023-04-19T18:51:46;19.00;59.70
58153;DHT22;43967;51.634;5.566;2023-04-19T18:57:07;19.00;59.60
58153;DHT22;43967;51.634;5.566;2023-04-19T19:02:29;19.00;59.40
58153;DHT22;43967;51.634;5.566;2023-04-19T19:07:50;19.00;59.20
58153;DHT22;43967;51.634;5.566;2023-04-19T19:13:11;19.00;59.10
58153;DHT22;43967;51.634;5.566;2023-04-19T19:18:33;19.00;59.00
58153;DHT22;43967;51.634;5.566;2023-04-19T19:23:55;18.90;58.80
58153;DHT22;43967;51.634;5.566;2023-04-19T19:29:16;18.90;58.70
58153;DHT22;43967;51.634;5.566;2023-04-19T19:34:37;18.90;58.60
58153;DHT22;43967;51.634;5.566;2023-04-19T19:39:59;18.90;58.50
58153;DHT22;43967;51.634;5.566;2023-04-19T19:45:20;18.90;58.40
58153;DHT22;43967;51.634;5.566;2023-04-19T19:50:41;18.90;58.30
58153;DHT22;43967;51.634;5.566;2023-04-19T19:56:03;18.90;58.30
58153;DHT22;43967;51.634;5.566;2023-04-19T20:01:24;18.90;58.20
58153;DHT22;43967;51.634;5.566;2023-04-19T20:06:45;18.90;58.20
58153;DHT22;43967;51.634;5.566;2023-04-19T20:12:06;18.90;58.00
58153;DHT22;43967;51.634;5.566;2023-04-19T20:17:28;18.90;57.90
58153;DHT22;43967;51.634;5.566;2023-04-19T20:22:49;18.80;57.80
58153;DHT22;43967;51.634;5.566;2023-04-19T20:28:10;18.80;57.70
58153;DHT22;43967;51.634;5.566;2023-04-19T20:33:32;18.80;57.80
58153;DHT22;43967;51.634;5.566;2023-04-19T20:38:53;18.80;57.70
58153;DHT22;43967;51.634;5.566;2023-04-19T20:44:15;18.80;57.70
58153;DHT22;43967;51.634;5.566;2023-04-19T20:49:36;18.80;57.60
58153;DHT22;43967;51.634;5.566;2023-04-19T20:54:57;18.80;57.50
58153;DHT22;43967;51.634;5.566;2023-04-19T21:00:19;18.80;57.50
58153;DHT22;43967;51.634;5.566;2023-04-19T21:05:40;18.80;57.50
58153;DHT22;43967;51.634;5.566;2023-04-19T21:11:01;18.80;57.40
58153;DHT22;43967;51.634;5.566;2023-04-19T21:16:22;18.80;57.40
58153;DHT22;43967;51.634;5.566;2023-04-19T21:21:44;18.70;57.30
58153;DHT22;43967;51.634;5.566;2023-04-19T21:27:05;18.80;57.40
58153;DHT22;43967;51.634;5.566;2023-04-19T21:32:26;18.70;57.20
58153;DHT22;43967;51.634;5.566;2023-04-19T21:37:47;18.70;57.10
58153;DHT22;43967;51.634;5.566;2023-04-19T21:43:09;18.70;57.00
58153;DHT22;43967;51.634;5.566;2023-04-19T21:48:30;18.70;57.10
58153;DHT22;43967;51.634;5.566;2023-04-19T21:53:52;18.70;57.10
58153;DHT22;43967;51.634;5.566;2023-04-19T21:59:13;18.70;57.00
58153;DHT22;43967;51.634;5.566;2023-04-19T22:04:34;18.70;57.00
58153;DHT22;43967;51.634;5.566;2023-04-19T22:09:56;18.70;57.00
58153;DHT22;43967;51.634;5.566;2023-04-19T22:15:18;18.70;56.90
58153;DHT22;43967;51.634;5.566;2023-04-19T22:20:39;18.60;56.80
58153;DHT22;43967;51.634;5.566;2023-04-19T22:26:01;18.60;56.90
58153;DHT22;43967;51.634;5.566;2023-04-19T22:31:22;18.60;56.80
58153;DHT22;43967;51.634;5.566;2023-04-19T22:36:43;18.60;56.80
58153;DHT22;43967;51.634;5.566;2023-04-19T22:42:04;18.60;56.80
58153;DHT22;43967;51.634;5.566;2023-04-19T22:47:26;18.60;56.70
58153;DHT22;43967;51.634;5.566;2023-04-19T22:52:47;18.60;57.50
58153;DHT22;43967;51.634;5.566;2023-04-19T22:58:09;18.60;56.70
58153;DHT22;43967;51.634;5.566;2023-04-19T23:03:30;18.60;56.60
58153;DHT22;43967;51.634;5.566;2023-04-19T23:08:51;18.50;56.70
58153;DHT22;43967;51.634;5.566;2023-04-19T23:14:13;18.50;56.60
58153;DHT22;43967;51.634;5.566;2023-04-19T23:19:34;18.50;56.50
58153;DHT22;43967;51.634;5.566;2023-04-19T23:24:56;18.50;56.50
58153;DHT22;43967;51.634;5.566;2023-04-19T23:30:17;18.40;56.40
58153;DHT22;43967;51.634;5.566;2023-04-19T23:35:39;18.40;56.40
58153;DHT22;43967;51.634;5.566;2023-04-19T23:41:00;18.40;56.20
58153;DHT22;43967;51.634;5.566;2023-04-19T23:46:21;18.30;56.20
58153;DHT22;43967;51.634;5.566;2023-04-19T23:51:43;18.30;56.20
58153;DHT22;43967;51.634;5.566;2023-04-19T23:57:04;18.30;56.20
